Time;durP1;ratioP1;P1;durP2;ratioP2;P2;SDS_P1;SDS_P2;PMS_P1;PMS_P2;Temp;Humidity;BMP_temperature;BMP_pressure;BME280_temperature;BME280_humidity;BME280_pressure;Samples;Min_cycle;Max_cycle;Signal;HPM_P1;HPM_P2
2023/05/26 00:00:58;;;;;;;16.50;6.30;;;13.40;99.90;;;;;;4994950;28;20194;-46
2023/05/26 00:03:27;;;;;;;11.93;6.07;;;13.40;99.90;;;;;;4995375;28;20022;-44
2023/05/26 00:05:54;;;;;;;11.93;6.07;;;13.40;99.90;;;;;;4994733;28;20034;-45
2023/05/26 00:08:19;;;;;;;10.57;5.68;;;13.40;99.90;;;;;;4994962;28;20054;-44
2023/05/26 00:10:45;;;;;;;16.52;6.15;;;13.40;99.90;;;;;;4993209;28;20030;-44
2023/05/26 00:13:10;;;;;;;19.45;6.22;;;13.40;99.90;;;;;;4995006;28;20049;-45
2023/05/26 00:15:36;;;;;;;10.40;5.93;;;13.40;99.90;;;;;;4994489;28;20293;-43
2023/05/26 00:18:02;;;;;;;13.57;5.63;;;13.30;99.90;;;;;;4993037;28;20473;-47
2023/05/26 00:20:29;;;;;;;10.90;5.60;;;13.30;99.90;;;;;;4994184;28;20171;-43
2023/05/26 00:22:54;;;;;;;13.60;6.18;;;13.20;99.90;;;;;;4993148;28;20044;-46
2023/05/26 00:25:21;;;;;;;12.20;6.20;;;13.20;99.90;;;;;;4993483;28;20022;-45
2023/05/26 00:27:46;;;;;;;12.02;5.50;;;13.20;99.90;;;;;;4994733;28;20026;-48
2023/05/26 00:30:12;;;;;;;10.32;5.43;;;13.20;99.90;;;;;;4994266;28;20045;-44
2023/05/26 00:32:37;;;;;;;12.02;6.43;;;13.20;99.90;;;;;;4994304;28;20022;-44
2023/05/26 00:35:03;;;;;;;12.02;5.57;;;13.20;99.90;;;;;;4994378;28;20037;-44
2023/05/26 00:37:29;;;;;;;11.80;6.78;;;13.10;99.90;;;;;;4993163;28;20133;-47
2023/05/26 00:39:55;;;;;;;10.50;5.72;;;13.10;99.90;;;;;;4993011;28;20022;-47
2023/05/26 00:42:21;;;;;;;11.18;5.72;;;13.10;99.90;;;;;;4994429;28;20041;-43
2023/05/26 00:44:46;;;;;;;12.55;6.60;;;13.10;99.90;;;;;;4994059;28;20026;-43
2023/05/26 00:47:12;;;;;;;14.80;6.50;;;13.10;99.90;;;;;;4993426;28;20057;-46
2023/05/26 00:49:38;;;;;;;8.27;6.30;;;13.10;99.90;;;;;;4992638;23;20055;-46
2023/05/26 00:52:04;;;;;;;12.23;5.80;;;13.10;99.90;;;;;;4973087;28;20019;-48
2023/05/26 00:54:30;;;;;;;12.00;6.38;;;13.00;99.90;;;;;;4974661;28;20098;-47
2023/05/26 00:56:58;;;;;;;9.80;5.78;;;13.00;99.90;;;;;;4974569;28;20030;-47
2023/05/26 00:59:23;;;;;;;9.57;5.25;;;13.00;99.90;;;;;;4974269;28;20111;-45
2023/05/26 01:01:49;;;;;;;9.63;5.32;;;13.00;99.90;;;;;;4974231;28;20105;-48
2023/05/26 01:04:15;;;;;;;10.45;6.40;;;13.00;99.90;;;;;;4974471;28;20544;-45
2023/05/26 01:06:44;;;;;;;11.02;5.28;;;12.90;99.90;;;;;;4974348;28;20101;-47
2023/05/26 01:09:11;;;;;;;9.27;5.70;;;12.90;99.90;;;;;;4974089;28;20034;-47
2023/05/26 01:11:57;;;;;;;9.63;6.15;;;12.90;99.90;;;;;;4974545;28;20058;-46
2023/05/26 01:14:39;;;;;;;11.45;5.53;;;12.90;99.90;;;;;;4974328;28;20417;-48
2023/05/26 01:17:20;;;;;;;11.57;5.82;;;12.90;99.90;;;;;;4974246;28;20023;-47
2023/05/26 01:20:07;;;;;;;11.48;5.72;;;12.80;99.90;;;;;;4973845;28;20026;-52
2023/05/26 01:22:51;;;;;;;9.73;5.47;;;12.80;99.90;;;;;;4972607;28;20027;-46
2023/05/26 01:25:35;;;;;;;8.15;6.25;;;12.80;99.90;;;;;;4974494;28;20038;-46
2023/05/26 01:28:20;;;;;;;11.35;6.15;;;12.80;99.90;;;;;;4973942;28;20035;-49
2023/05/26 01:30:47;;;;;;;12.85;6.32;;;12.70;99.90;;;;;;4973708;28;20026;-49
2023/05/26 01:33:12;;;;;;;9.07;6.00;;;12.70;99.90;;;;;;4972330;28;20403;-49
2023/05/26 01:35:38;;;;;;;9.52;5.70;;;12.70;99.90;;;;;;4973824;28;20034;-48
2023/05/26 01:38:05;;;;;;;13.30;5.80;;;12.70;99.90;;;;;;4973652;28;20035;-48
2023/05/26 01:40:31;;;;;;;11.32;5.88;;;12.70;99.90;;;;;;4973646;28;20022;-45
2023/05/26 01:43:08;;;;;;;7.32;5.32;;;12.70;99.90;;;;;;4973544;28;20030;-47
2023/05/26 01:45:46;;;;;;;9.02;6.03;;;12.70;99.90;;;;;;4973369;28;20063;-50
2023/05/26 01:48:14;;;;;;;8.02;5.45;;;12.60;99.90;;;;;;4973541;28;20102;-46
2023/05/26 01:50:52;;;;;;;11.35;5.95;;;12.60;99.90;;;;;;4972807;28;20074;-48
2023/05/26 01:53:20;;;;;;;16.95;6.00;;;12.60;99.90;;;;;;4973313;28;20387;-46
2023/05/26 01:55:50;;;;;;;11.75;6.18;;;12.60;99.90;;;;;;4973440;28;20031;-45
2023/05/26 01:58:16;;;;;;;11.60;5.40;;;12.60;99.90;;;;;;4973444;28;20027;-43
2023/05/26 02:00:46;;;;;;;10.57;5.43;;;12.60;99.90;;;;;;4973129;28;20039;-46
2023/05/26 02:03:14;;;;;;;6.60;5.35;;;12.60;99.90;;;;;;4973039;28;20047;-46
2023/05/26 02:05:40;;;;;;;10.32;6.05;;;12.60;99.90;;;;;;4973276;28;20030;-49
2023/05/26 02:08:06;;;;;;;11.55;6.35;;;12.50;99.90;;;;;;4973786;28;20019;-47
2023/05/26 02:10:31;;;;;;;8.05;5.57;;;12.50;99.90;;;;;;4973022;28;20105;-46
2023/05/26 02:12:57;;;;;;;15.73;7.20;;;12.50;99.90;;;;;;4973083;28;20450;-51
2023/05/26 02:15:22;;;;;;;9.77;5.75;;;12.40;99.90;;;;;;4973468;28;20034;-47
2023/05/26 02:17:48;;;;;;;13.02;6.00;;;12.40;99.90;;;;;;4973259;28;20035;-46
2023/05/26 02:20:16;;;;;;;11.98;5.97;;;12.30;99.90;;;;;;4973128;28;20073;-45
2023/05/26 02:22:41;;;;;;;14.90;6.07;;;12.30;99.90;;;;;;4973028;28;20023;-49
2023/05/26 02:25:07;;;;;;;9.80;5.57;;;12.30;99.90;;;;;;4973264;28;20310;-48
2023/05/26 02:27:32;;;;;;;8.82;5.05;;;12.30;99.90;;;;;;4973289;28;20101;-46
2023/05/26 02:29:58;;;;;;;17.25;6.22;;;12.20;99.90;;;;;;4970409;28;20022;-46
2023/05/26 02:32:24;;;;;;;11.88;5.65;;;12.20;99.90;;;;;;4973053;28;20042;-47
2023/05/26 02:34:50;;;;;;;16.25;5.60;;;12.20;99.90;;;;;;4973220;28;20535;-48
2023/05/26 02:37:17;;;;;;;13.90;5.65;;;12.20;99.90;;;;;;4973384;28;20023;-47
2023/05/26 02:39:43;;;;;;;12.85;6.30;;;12.10;99.90;;;;;;4973326;28;20026;-46
2023/05/26 02:42:08;;;;;;;14.48;6.55;;;12.10;99.90;;;;;;4973812;28;20031;-47
2023/05/26 02:44:34;;;;;;;12.77;5.97;;;12.10;99.90;;;;;;4973949;28;20034;-47
2023/05/26 02:46:59;;;;;;;9.43;5.70;;;12.10;99.90;;;;;;4973813;28;20026;-48
2023/05/26 02:49:25;;;;;;;11.27;6.53;;;12.10;99.90;;;;;;4972601;28;20047;-48
2023/05/26 02:51:50;;;;;;;10.18;6.70;;;12.00;99.90;;;;;;4972877;28;20396;-49
2023/05/26 02:54:16;;;;;;;11.88;6.38;;;12.00;99.90;;;;;;4973601;28;20035;-47
2023/05/26 02:56:41;;;;;;;11.98;6.20;;;12.00;99.90;;;;;;4973607;28;20042;-46
2023/05/26 02:59:07;;;;;;;12.23;6.20;;;12.00;99.90;;;;;;4973411;28;20115;-49
2023/05/26 03:01:32;;;;;;;11.07;5.88;;;12.00;99.90;;;;;;4974512;28;20023;-45
2023/05/26 03:03:58;;;;;;;10.23;6.10;;;12.00;99.90;;;;;;4972094;28;20027;-46
2023/05/26 03:06:24;;;;;;;11.43;6.20;;;12.00;99.90;;;;;;4972706;28;20029;-47
2023/05/26 03:08:50;;;;;;;8.77;6.10;;;11.90;99.90;;;;;;4972470;28;20481;-48
2023/05/26 03:11:15;;;;;;;11.80;6.53;;;11.90;99.90;;;;;;4972475;28;20114;-47
2023/05/26 03:13:41;;;;;;;11.40;6.57;;;11.90;99.90;;;;;;4972155;28;20027;-49
2023/05/26 03:16:06;;;;;;;12.68;6.18;;;11.90;99.90;;;;;;4972440;28;20031;-48
2023/05/26 03:18:32;;;;;;;12.45;6.22;;;11.90;99.90;;;;;;4972328;28;20042;-46
2023/05/26 03:20:58;;;;;;;14.98;6.55;;;11.80;99.90;;;;;;4972069;28;20555;-54
2023/05/26 03:23:24;;;;;;;15.23;6.85;;;11.90;99.90;;;;;;4972076;28;20046;-47
2023/05/26 03:25:50;;;;;;;9.38;7.00;;;11.90;99.90;;;;;;4972347;28;20426;-48
2023/05/26 03:28:16;;;;;;;12.38;6.60;;;11.80;99.90;;;;;;4971117;28;20046;-47
2023/05/26 03:30:41;;;;;;;14.13;6.68;;;11.80;99.90;;;;;;4971918;28;20516;-50
2023/05/26 03:33:07;;;;;;;12.75;6.70;;;11.80;99.90;;;;;;4972002;28;20395;-48
2023/05/26 03:35:33;;;;;;;8.88;6.22;;;11.80;99.90;;;;;;4972272;28;20027;-46
2023/05/26 03:37:58;;;;;;;13.18;7.28;;;11.90;99.90;;;;;;4972299;28;20402;-48
2023/05/26 03:40:24;;;;;;;15.57;7.15;;;11.80;99.90;;;;;;4971810;28;20038;-46
2023/05/26 03:42:49;;;;;;;9.48;6.50;;;11.80;99.90;;;;;;4972087;28;20058;-44
2023/05/26 03:45:15;;;;;;;12.48;6.97;;;11.80;99.90;;;;;;4972410;28;20101;-47
2023/05/26 03:47:42;;;;;;;9.20;6.53;;;11.80;99.90;;;;;;4970681;28;20022;-46
2023/05/26 03:50:08;;;;;;;13.30;7.53;;;11.80;99.90;;;;;;4971790;28;20035;-42
2023/05/26 03:52:33;;;;;;;13.40;7.60;;;11.80;99.90;;;;;;4971932;28;20023;-46
2023/05/26 03:54:59;;;;;;;12.18;6.20;;;11.80;99.90;;;;;;4971888;28;20082;-48
2023/05/26 03:57:25;;;;;;;10.65;6.72;;;11.80;99.90;;;;;;4972013;28;20022;-51
2023/05/26 03:59:51;;;;;;;12.77;6.65;;;11.80;99.90;;;;;;4971674;28;20027;-48
2023/05/26 04:02:16;;;;;;;14.25;6.72;;;11.80;99.90;;;;;;4971805;28;20069;-48
2023/05/26 04:04:42;;;;;;;10.23;6.68;;;11.80;99.90;;;;;;4972202;28;20424;-48
2023/05/26 04:07:07;;;;;;;12.73;6.32;;;11.80;99.90;;;;;;4972097;28;20045;-47
2023/05/26 04:09:33;;;;;;;14.98;7.05;;;11.90;99.90;;;;;;4971573;28;20042;-48
2023/05/26 04:11:58;;;;;;;10.95;6.22;;;11.90;99.90;;;;;;4971747;28;20102;-50
2023/05/26 04:14:24;;;;;;;12.88;7.38;;;11.80;99.90;;;;;;4973223;28;20442;-49
2023/05/26 04:16:49;;;;;;;15.73;6.78;;;12.00;99.90;;;;;;4975434;28;20030;-50
2023/05/26 04:19:15;;;;;;;17.92;8.98;;;11.90;99.90;;;;;;4975000;28;20077;-47
2023/05/26 04:21:40;;;;;;;14.57;8.68;;;12.00;99.90;;;;;;4975636;28;20055;-50
2023/05/26 04:24:06;;;;;;;15.90;7.03;;;12.00;99.90;;;;;;4974941;28;20027;-48
2023/05/26 04:26:34;;;;;;;11.65;6.50;;;12.10;99.90;;;;;;4975304;28;20038;-50
2023/05/26 04:29:00;;;;;;;14.32;7.05;;;12.10;99.90;;;;;;4973758;28;20038;-49
2023/05/26 04:31:28;;;;;;;10.35;6.80;;;12.10;99.90;;;;;;4975086;28;20022;-48
2023/05/26 04:33:56;;;;;;;11.75;6.72;;;12.20;99.90;;;;;;4974722;28;20086;-50
2023/05/26 04:36:23;;;;;;;11.25;6.68;;;12.30;99.90;;;;;;4975025;28;20035;-49
2023/05/26 04:38:48;;;;;;;15.48;6.85;;;12.40;99.90;;;;;;4974934;28;20026;-46
2023/05/26 04:41:15;;;;;;;12.38;7.20;;;12.50;99.90;;;;;;4973729;28;20438;-48
2023/05/26 04:43:40;;;;;;;14.20;6.25;;;12.60;99.90;;;;;;4974579;28;20102;-46
2023/05/26 04:46:06;;;;;;;14.82;6.47;;;12.80;99.90;;;;;;4974884;28;20521;-48
2023/05/26 04:48:32;;;;;;;12.27;5.80;;;13.10;99.90;;;;;;4974553;28;20042;-50
2023/05/26 04:50:57;;;;;;;10.48;5.50;;;13.60;99.90;;;;;;4974785;28;20031;-48
2023/05/26 04:53:23;;;;;;;10.73;6.63;;;14.40;99.90;;;;;;4974574;28;20070;-46
2023/05/26 04:55:48;;;;;;;17.83;5.75;;;14.80;99.90;;;;;;4974989;28;20039;-50
2023/05/26 04:58:14;;;;;;;9.57;4.93;;;15.30;99.90;;;;;;4974823;28;20497;-47
2023/05/26 05:00:40;;;;;;;12.45;5.65;;;15.90;99.90;;;;;;4974395;28;20026;-48
2023/05/26 05:03:05;;;;;;;10.63;5.00;;;16.80;99.90;;;;;;4974157;28;20027;-48
2023/05/26 05:05:31;;;;;;;9.35;5.15;;;17.20;99.90;;;;;;4974599;28;20154;-46
2023/05/26 05:07:57;;;;;;;14.43;5.13;;;17.60;99.90;;;;;;4974668;28;20067;-48
2023/05/26 05:10:23;;;;;;;10.23;5.05;;;18.20;99.90;;;;;;4974269;28;20062;-46
2023/05/26 05:12:49;;;;;;;15.60;5.28;;;18.70;99.50;;;;;;4974151;28;20081;-47
2023/05/26 05:15:15;;;;;;;8.43;5.03;;;19.00;99.20;;;;;;4974416;28;20030;-47
2023/05/26 05:17:40;;;;;;;11.25;4.80;;;18.90;98.90;;;;;;4974543;28;20027;-49
2023/05/26 05:20:07;;;;;;;10.52;5.22;;;19.00;98.60;;;;;;4973846;28;20041;-51
2023/05/26 05:22:33;;;;;;;11.13;5.28;;;18.80;99.00;;;;;;4974047;28;20652;-51
2023/05/26 05:24:58;;;;;;;11.18;6.03;;;18.60;99.00;;;;;;4973989;28;20125;-50
2023/05/26 05:27:24;;;;;;;8.80;4.90;;;18.80;98.40;;;;;;4973479;28;20105;-50
2023/05/26 05:29:49;;;;;;;11.20;4.97;;;18.90;98.10;;;;;;4972452;28;20030;-49
2023/05/26 05:32:15;;;;;;;12.70;5.10;;;18.80;98.30;;;;;;4973602;28;20026;-50
2023/05/26 05:34:40;;;;;;;11.88;4.97;;;18.70;98.80;;;;;;4973847;28;20027;-47
2023/05/26 05:37:06;;;;;;;12.90;4.93;;;18.70;99.10;;;;;;4973872;28;20534;-48
2023/05/26 05:39:31;;;;;;;11.93;5.15;;;19.20;98.30;;;;;;4973488;28;20033;-51
2023/05/26 05:41:57;;;;;;;13.23;4.80;;;19.10;97.70;;;;;;4973901;28;20019;-51
2023/05/26 05:44:22;;;;;;;7.35;4.22;;;19.10;98.40;;;;;;4974229;28;20035;-47
2023/05/26 05:46:48;;;;;;;14.93;5.25;;;19.30;97.90;;;;;;4974053;28;20035;-47
2023/05/26 05:49:13;;;;;;;8.77;4.75;;;19.70;97.40;;;;;;4973122;28;20047;-47
2023/05/26 05:51:39;;;;;;;12.60;4.75;;;20.20;96.70;;;;;;4972041;28;20059;-47
2023/05/26 05:54:05;;;;;;;10.98;4.30;;;21.00;96.40;;;;;;4972925;28;20081;-48
2023/05/26 05:56:30;;;;;;;16.20;5.18;;;21.20;94.80;;;;;;4973078;28;20035;-48
2023/05/26 05:58:56;;;;;;;10.93;5.30;;;20.60;95.10;;;;;;4971423;28;20065;-51
2023/05/26 06:01:21;;;;;;;14.73;5.05;;;20.30;95.40;;;;;;4973357;28;20104;-49
2023/05/26 06:03:47;;;;;;;15.60;5.65;;;20.10;95.80;;;;;;4972844;28;20030;-46
2023/05/26 06:06:13;;;;;;;12.52;6.07;;;19.70;96.30;;;;;;4971717;28;20027;-47
2023/05/26 06:08:38;;;;;;;12.35;6.20;;;19.80;96.00;;;;;;4972931;28;20403;-47
2023/05/26 06:11:04;;;;;;;15.15;5.85;;;19.70;96.50;;;;;;4972630;28;20031;-47
2023/05/26 06:13:30;;;;;;;14.45;5.63;;;19.50;96.30;;;;;;4972745;28;20030;-49
2023/05/26 06:15:55;;;;;;;13.13;4.68;;;19.70;96.60;;;;;;4972942;28;20041;-49
2023/05/26 06:18:21;;;;;;;8.35;4.57;;;19.50;97.20;;;;;;4973053;28;20030;-48
2023/05/26 06:20:46;;;;;;;19.25;5.15;;;19.50;96.50;;;;;;4972815;28;20018;-51
2023/05/26 06:23:12;;;;;;;13.50;4.55;;;19.80;96.00;;;;;;4972655;28;20031;-47
2023/05/26 06:25:37;;;;;;;15.27;5.45;;;19.90;95.90;;;;;;4972679;28;20034;-47
2023/05/26 06:28:03;;;;;;;13.95;5.22;;;19.70;96.20;;;;;;4971578;28;20122;-47
2023/05/26 06:30:28;;;;;;;14.02;5.57;;;19.30;96.50;;;;;;4972444;28;20065;-47
2023/05/26 06:32:55;;;;;;;13.27;5.78;;;19.00;97.00;;;;;;4972450;28;20023;-49
2023/05/26 06:35:21;;;;;;;13.73;4.90;;;19.00;97.20;;;;;;4972670;28;20022;-47
2023/05/26 06:37:46;;;;;;;10.75;5.90;;;19.20;97.10;;;;;;4972583;28;20391;-48
2023/05/26 06:40:12;;;;;;;12.55;5.95;;;18.80;97.20;;;;;;4972270;28;20031;-46
2023/05/26 06:42:37;;;;;;;13.65;5.22;;;18.70;97.50;;;;;;4972185;28;20097;-51
2023/05/26 06:45:03;;;;;;;15.38;5.03;;;19.10;97.30;;;;;;4970930;28;20069;-48
2023/05/26 06:47:29;;;;;;;15.20;5.18;;;20.00;96.70;;;;;;4972516;28;20038;-48
2023/05/26 06:49:54;;;;;;;15.25;5.60;;;20.50;95.90;;;;;;5005586;23;20054;-50
2023/05/26 06:52:20;;;;;;;14.02;5.30;;;20.70;95.20;;;;;;4991569;28;20027;-53
2023/05/26 06:54:45;;;;;;;14.23;6.38;;;20.60;95.20;;;;;;4975718;28;20085;-48
2023/05/26 06:57:10;;;;;;;13.80;4.85;;;20.40;95.30;;;;;;4971010;28;20034;-50
2023/05/26 06:59:36;;;;;;;10.05;5.00;;;20.30;95.60;;;;;;4971924;28;20023;-50
2023/05/26 07:02:02;;;;;;;23.13;4.97;;;20.50;95.30;;;;;;4970912;28;20173;-48
2023/05/26 07:04:27;;;;;;;17.52;5.53;;;20.40;95.40;;;;;;4972358;28;20093;-49
2023/05/26 07:06:53;;;;;;;16.00;5.28;;;20.60;95.00;;;;;;4987311;28;20027;-48
2023/05/26 07:09:19;;;;;;;10.60;5.25;;;20.40;95.60;;;;;;4971813;28;20034;-52
2023/05/26 07:11:45;;;;;;;9.90;4.70;;;20.40;95.40;;;;;;4972638;28;20403;-48
2023/05/26 07:14:10;;;;;;;17.42;5.88;;;20.70;95.50;;;;;;4970907;28;20027;-53
2023/05/26 07:16:36;;;;;;;15.57;5.10;;;20.90;94.60;;;;;;4971175;28;20035;-49
2023/05/26 07:19:02;;;;;;;23.48;6.15;;;21.00;94.60;;;;;;4972913;28;20113;-52
2023/05/26 07:21:28;;;;;;;17.10;4.70;;;21.30;94.20;;;;;;4974338;28;20025;-51
2023/05/26 07:23:53;;;;;;;17.23;7.25;;;21.40;94.20;;;;;;4971896;28;20473;-51
2023/05/26 07:26:19;;;;;;;13.98;5.00;;;21.60;93.80;;;;;;4972450;28;20585;-54
2023/05/26 07:28:46;;;;;;;18.38;4.93;;;21.60;93.90;;;;;;4971188;28;20023;-50
2023/05/26 07:31:12;;;;;;;15.85;5.13;;;21.60;93.80;;;;;;4971922;28;20086;-48
2023/05/26 07:33:37;;;;;;;16.10;5.32;;;21.70;93.50;;;;;;4986834;28;20027;-49
2023/05/26 07:36:03;;;;;;;13.82;5.47;;;21.70;93.50;;;;;;4986985;28;20027;-48
2023/05/26 07:38:28;;;;;;;14.75;6.05;;;21.40;93.70;;;;;;4987155;28;20165;-49
2023/05/26 07:40:54;;;;;;;16.00;5.88;;;21.20;94.10;;;;;;4971719;28;20034;-49
2023/05/26 07:43:20;;;;;;;14.52;5.63;;;21.50;93.30;;;;;;4972089;28;20050;-51
2023/05/26 07:45:46;;;;;;;10.70;4.32;;;21.80;93.70;;;;;;4972073;28;20398;-51
2023/05/26 07:48:11;;;;;;;18.85;5.65;;;22.50;93.50;;;;;;4970741;28;20034;-50
2023/05/26 07:50:37;;;;;;;15.98;4.50;;;23.00;92.90;;;;;;4974867;28;20041;-52
2023/05/26 07:53:02;;;;;;;16.85;4.63;;;23.50;91.80;;;;;;4975592;28;20041;-50
2023/05/26 07:55:28;;;;;;;17.15;5.38;;;24.00;91.00;;;;;;4975843;28;20384;-56
2023/05/26 07:57:53;;;;;;;11.30;5.32;;;24.40;90.00;;;;;;4990819;28;20495;-55
2023/05/26 08:00:19;;;;;;;14.82;4.57;;;23.90;90.60;;;;;;4975549;28;20026;-53
2023/05/26 08:02:45;;;;;;;12.75;5.03;;;23.70;91.10;;;;;;4975563;28;20041;-52
2023/05/26 08:05:10;;;;;;;14.05;5.15;;;23.30;90.90;;;;;;4975584;28;20031;-56
2023/05/26 08:07:36;;;;;;;12.80;4.95;;;22.60;91.70;;;;;;4975741;28;20074;-53
2023/05/26 08:10:03;;;;;;;11.00;4.10;;;22.50;91.40;;;;;;4975667;28;20403;-52
2023/05/26 08:12:28;;;;;;;14.35;4.68;;;22.30;92.00;;;;;;4975502;28;20023;-52
2023/05/26 08:14:54;;;;;;;11.18;5.05;;;22.50;91.70;;;;;;4975630;28;20093;-53
2023/05/26 08:17:20;;;;;;;19.83;5.82;;;22.30;92.10;;;;;;4976582;28;20372;-54
2023/05/26 08:19:46;;;;;;;12.07;4.68;;;22.10;92.40;;;;;;4976290;28;20034;-49
2023/05/26 08:22:11;;;;;;;12.73;5.10;;;21.60;92.60;;;;;;4975587;28;20077;-51
2023/05/26 08:24:37;;;;;;;14.35;5.68;;;22.00;93.00;;;;;;4975664;28;20023;-55
2023/05/26 08:27:02;;;;;;;15.50;5.82;;;21.90;92.40;;;;;;4975713;28;20022;-53
2023/05/26 08:29:28;;;;;;;17.33;6.10;;;21.50;92.80;;;;;;4973751;28;20027;-52
2023/05/26 08:31:53;;;;;;;18.00;5.95;;;21.30;93.10;;;;;;4975631;28;20308;-50
2023/05/26 08:34:19;;;;;;;18.10;6.78;;;20.90;93.50;;;;;;4975507;28;20058;-50
2023/05/26 08:36:46;;;;;;;17.20;6.68;;;20.90;93.90;;;;;;4975115;28;20275;-51
2023/05/26 08:39:11;;;;;;;15.45;5.53;;;20.70;94.60;;;;;;4974946;28;20110;-51
2023/05/26 08:42:00;;;;;;;15.13;5.82;;;21.10;94.30;;;;;;4975159;28;20149;-51
2023/05/26 08:44:26;;;;;;;14.20;6.38;;;21.30;93.50;;;;;;4975040;28;20023;-54
2023/05/26 08:46:55;;;;;;;14.73;5.22;;;21.30;93.30;;;;;;4974618;28;20045;-46
2023/05/26 08:49:21;;;;;;;12.85;5.97;;;21.70;93.70;;;;;;4986902;28;20034;-53
2023/05/26 08:52:10;;;;;;;13.32;5.30;;;21.10;93.30;;;;;;4993846;28;20120;-50
2023/05/26 08:54:36;;;;;;;18.23;6.60;;;21.10;93.60;;;;;;4993694;28;20461;-55
2023/05/26 08:57:04;;;;;;;19.02;5.07;;;21.00;94.00;;;;;;4993860;28;20109;-55
2023/05/26 08:59:31;;;;;;;18.02;5.90;;;21.10;94.00;;;;;;4993693;28;20034;-56
2023/05/26 09:01:57;;;;;;;19.42;5.20;;;21.20;93.50;;;;;;4992085;28;20077;-54
2023/05/26 09:04:24;;;;;;;17.70;6.13;;;21.20;93.40;;;;;;4992759;28;20025;-54
2023/05/26 09:06:50;;;;;;;19.98;9.13;;;21.30;93.50;;;;;;4994064;28;20042;-54
2023/05/26 09:09:17;;;;;;;36.67;20.20;;;21.20;93.50;;;;;;4993630;28;20030;-52
2023/05/26 09:11:43;;;;;;;19.55;5.60;;;21.30;93.70;;;;;;4993839;28;20026;-53
2023/05/26 09:14:14;;;;;;;18.23;5.80;;;21.10;93.30;;;;;;4993465;28;20577;-54
2023/05/26 09:16:39;;;;;;;14.32;5.25;;;21.00;93.40;;;;;;4993866;28;20036;-55
2023/05/26 09:19:06;;;;;;;12.90;5.20;;;20.90;93.50;;;;;;4993323;28;20026;-52
2023/05/26 09:21:32;;;;;;;16.67;6.35;;;20.70;93.60;;;;;;4993827;28;20030;-54
2023/05/26 09:23:59;;;;;;;14.10;5.82;;;20.70;94.00;;;;;;4993269;28;20027;-53
2023/05/26 09:26:30;;;;;;;26.10;6.78;;;21.00;94.10;;;;;;4993183;28;20520;-51
2023/05/26 09:28:55;;;;;;;13.38;4.97;;;21.00;93.60;;;;;;4991348;28;20039;-54
2023/05/26 09:31:21;;;;;;;18.23;6.25;;;21.10;93.80;;;;;;4993479;28;20493;-50
2023/05/26 09:33:47;;;;;;;16.05;6.30;;;21.00;93.90;;;;;;4981115;28;20050;-51
2023/05/26 09:36:14;;;;;;;13.88;5.93;;;20.90;93.70;;;;;;4973914;28;20081;-51
2023/05/26 09:38:42;;;;;;;17.17;6.47;;;20.80;93.80;;;;;;4994130;28;20024;-52
2023/05/26 09:41:07;;;;;;;14.07;5.20;;;20.90;93.50;;;;;;4983752;28;20045;-53
2023/05/26 09:43:34;;;;;;;15.50;6.22;;;20.30;93.60;;;;;;4991637;28;20479;-51
2023/05/26 09:46:00;;;;;;;8.98;5.18;;;20.10;94.30;;;;;;4992698;28;20498;-51
2023/05/26 09:48:25;;;;;;;12.88;5.68;;;20.30;94.40;;;;;;4992916;28;20030;-51
2023/05/26 09:50:52;;;;;;;11.05;4.78;;;20.50;94.00;;;;;;4992756;28;20401;-49
2023/05/26 09:53:18;;;;;;;11.25;4.60;;;20.60;94.20;;;;;;4992763;28;20442;-54
2023/05/26 09:55:44;;;;;;;10.55;5.47;;;20.50;94.30;;;;;;4991659;28;20085;-54
2023/05/26 09:58:12;;;;;;;14.93;5.18;;;20.70;94.40;;;;;;4993037;28;20172;-48
2023/05/26 10:00:43;;;;;;;16.70;5.25;;;20.70;93.50;;;;;;4993006;28;20029;-51
2023/05/26 10:03:10;;;;;;;14.73;4.75;;;20.40;93.40;;;;;;4984869;28;20456;-53
2023/05/26 10:05:47;;;;;;;13.38;5.15;;;20.60;93.50;;;;;;4973634;28;20037;-51
2023/05/26 10:08:18;;;;;;;13.07;4.72;;;20.30;93.10;;;;;;4973462;28;20454;-53
2023/05/26 10:10:44;;;;;;;12.10;4.60;;;20.10;93.50;;;;;;4972953;28;20038;-52
2023/05/26 10:13:10;;;;;;;12.20;4.90;;;20.20;93.50;;;;;;4972724;28;20040;-52
2023/05/26 10:15:36;;;;;;;12.88;5.28;;;20.20;93.50;;;;;;4973301;28;20085;-52
2023/05/26 10:18:02;;;;;;;14.85;4.32;;;20.10;93.60;;;;;;4973527;28;20031;-50
2023/05/26 10:20:31;;;;;;;18.75;5.65;;;20.10;93.30;;;;;;4972816;28;20054;-51
2023/05/26 10:23:11;;;;;;;14.02;4.90;;;20.20;93.20;;;;;;4971521;28;20027;-49
2023/05/26 10:25:45;;;;;;;21.25;5.53;;;20.50;93.80;;;;;;4973339;28;20035;-52
2023/05/26 10:28:13;;;;;;;16.80;6.20;;;20.70;94.00;;;;;;4973103;28;20074;-51
2023/05/26 10:30:42;;;;;;;14.88;5.45;;;20.60;93.40;;;;;;4977047;28;20062;-53
2023/05/26 10:33:12;;;;;;;11.68;5.10;;;20.30;93.80;;;;;;4986688;28;20026;-56
2023/05/26 10:35:51;;;;;;;12.43;5.43;;;20.30;94.50;;;;;;4992045;28;20026;-54
2023/05/26 10:38:17;;;;;;;14.18;5.40;;;20.30;93.90;;;;;;4992139;28;20025;-49
2023/05/26 10:40:45;;;;;;;14.32;5.25;;;20.30;93.40;;;;;;4989466;28;20030;-52
2023/05/26 10:43:13;;;;;;;36.15;21.77;;;20.40;93.80;;;;;;4990349;28;20077;-50
2023/05/26 10:46:05;;;;;;;15.35;5.50;;;20.60;94.30;;;;;;5009711;28;20030;-53
2023/05/26 10:48:38;;;;;;;14.25;5.32;;;20.60;93.70;;;;;;4990039;28;20070;-49
2023/05/26 10:51:05;;;;;;;13.85;4.70;;;20.70;92.80;;;;;;4993491;28;20092;-49
2023/05/26 10:53:45;;;;;;;14.25;5.20;;;20.80;92.60;;;;;;4991070;28;20050;-50
2023/05/26 10:56:13;;;;;;;17.05;5.35;;;20.70;93.10;;;;;;4984627;28;20027;-52
2023/05/26 10:58:46;;;;;;;12.90;5.32;;;20.60;93.70;;;;;;4991870;28;20509;-49
2023/05/26 11:01:16;;;;;;;14.65;6.10;;;20.60;93.50;;;;;;4985891;28;20031;-48
2023/05/26 11:03:46;;;;;;;13.55;5.18;;;20.60;93.40;;;;;;4988492;28;20106;-54
2023/05/26 11:06:14;;;;;;;14.25;5.15;;;20.50;93.10;;;;;;4972915;28;20552;-52
2023/05/26 11:08:48;;;;;;;9.23;4.97;;;20.60;93.70;;;;;;4971793;28;20034;-53
2023/05/26 11:11:29;;;;;;;14.98;5.45;;;20.40;93.90;;;;;;4972832;28;20498;-52
2023/05/26 11:14:06;;;;;;;20.67;5.18;;;20.50;93.70;;;;;;4972839;28;20039;-51
2023/05/26 11:16:39;;;;;;;9.85;4.63;;;20.60;93.80;;;;;;4972723;28;20027;-56
2023/05/26 11:19:07;;;;;;;10.35;5.00;;;20.60;93.90;;;;;;4970987;28;20034;-51
2023/05/26 11:21:34;;;;;;;13.20;5.30;;;20.70;93.40;;;;;;4971307;28;20438;-51
2023/05/26 11:24:00;;;;;;;17.15;6.60;;;20.50;93.50;;;;;;4972575;28;20085;-55
2023/05/26 11:26:30;;;;;;;12.40;4.97;;;20.60;94.20;;;;;;4993481;28;20140;-51
2023/05/26 11:28:56;;;;;;;10.98;4.75;;;20.60;94.30;;;;;;4995399;28;20069;-55
2023/05/26 11:31:22;;;;;;;10.35;5.13;;;20.70;94.60;;;;;;4996004;28;20041;-54
2023/05/26 11:33:48;;;;;;;22.85;5.22;;;20.70;94.00;;;;;;4996172;28;20030;-56
2023/05/26 11:36:15;;;;;;;21.42;4.85;;;20.40;94.00;;;;;;4996347;28;20026;-56
2023/05/26 11:38:43;;;;;;;12.40;4.63;;;20.40;93.90;;;;;;4988346;28;20530;-50
2023/05/26 11:41:10;;;;;;;10.65;4.93;;;20.30;94.00;;;;;;4987342;28;20541;-56
2023/05/26 11:43:37;;;;;;;15.07;5.43;;;20.30;94.20;;;;;;4994596;28;20172;-52
2023/05/26 11:46:08;;;;;;;11.70;4.03;;;20.40;94.00;;;;;;4995509;28;20034;-54
2023/05/26 11:48:36;;;;;;;11.40;4.38;;;20.30;94.60;;;;;;4995191;28;20049;-54
2023/05/26 11:51:06;;;;;;;11.65;3.92;;;20.40;93.70;;;;;;4994884;28;20077;-49
2023/05/26 11:53:32;;;;;;;11.23;4.45;;;20.40;93.70;;;;;;4995288;28;20395;-54
2023/05/26 11:56:33;;;;;;;10.38;4.68;;;20.50;93.50;;;;;;4995200;28;20041;-48
2023/05/26 11:59:00;;;;;;;15.77;4.80;;;20.70;94.10;;;;;;4994485;28;20035;-51
2023/05/26 12:01:26;;;;;;;13.82;4.47;;;20.70;93.90;;;;;;4995162;28;20026;-53
2023/05/26 12:03:52;;;;;;;17.08;5.40;;;20.70;93.90;;;;;;4994630;28;20030;-53
2023/05/26 12:06:20;;;;;;;13.68;5.03;;;20.60;93.90;;;;;;4993243;28;20473;-48
2023/05/26 12:08:54;;;;;;;10.57;4.43;;;20.60;94.40;;;;;;4995720;28;20418;-50
2023/05/26 12:11:21;;;;;;;13.23;5.30;;;20.70;93.90;;;;;;4994587;28;20030;-55
2023/05/26 12:13:49;;;;;;;17.55;4.93;;;20.60;93.60;;;;;;4994500;28;20445;-50
2023/05/26 12:16:27;;;;;;;10.32;4.40;;;20.60;93.90;;;;;;4994470;28;20117;-47
2023/05/26 12:18:55;;;;;;;11.98;4.80;;;20.60;93.90;;;;;;4993132;28;20022;-49
2023/05/26 12:21:22;;;;;;;10.52;4.03;;;20.60;93.90;;;;;;4994749;28;20029;-52
2023/05/26 12:23:48;;;;;;;11.55;4.45;;;20.70;94.30;;;;;;4994453;28;20360;-48
2023/05/26 12:26:20;;;;;;;19.25;4.82;;;20.90;93.50;;;;;;4994475;28;20084;-50
2023/05/26 12:28:45;;;;;;;13.55;4.25;;;20.90;93.00;;;;;;4994459;28;20030;-49
2023/05/26 12:31:11;;;;;;;17.73;5.45;;;20.70;93.30;;;;;;4994278;28;20031;-48
2023/05/26 12:33:37;;;;;;;14.95;6.57;;;20.60;93.50;;;;;;4994282;28;20026;-51
2023/05/26 12:36:04;;;;;;;15.77;6.40;;;20.80;94.10;;;;;;4993840;28;20026;-52
2023/05/26 12:38:40;;;;;;;12.95;5.30;;;20.90;92.90;;;;;;4994288;28;20038;-48